createdAt,value
2022-11-13T00:02:54.121Z,5.82
2022-11-13T00:06:01.158Z,5.80
2022-11-13T00:09:12.005Z,5.76
2022-11-13T00:12:18.453Z,5.72
2022-11-13T00:15:26.355Z,5.85
2022-11-13T00:18:35.664Z,5.83
2022-11-13T00:21:42.349Z,5.81
2022-11-13T00:24:49.976Z,5.87
2022-11-13T00:27:56.318Z,5.88
2022-11-13T00:31:04.009Z,5.96
2022-11-13T00:34:41.108Z,6.00
2022-11-13T00:37:37.977Z,6.02
2022-11-13T00:40:45.937Z,6.06
2022-11-13T00:43:52.836Z,6.14
2022-11-13T00:46:59.531Z,6.06
2022-11-13T00:50:06.675Z,6.27
2022-11-13T00:53:17.900Z,6.32
2022-11-13T00:56:26.039Z,6.41
2022-11-13T00:59:32.676Z,6.38
2022-11-13T01:02:39.113Z,6.36
2022-11-13T01:05:47.740Z,6.37
2022-11-13T01:08:55.757Z,6.29
2022-11-13T01:12:03.834Z,6.39
2022-11-13T01:15:10.970Z,6.32
2022-11-13T01:18:17.464Z,6.35
2022-11-13T01:21:26.311Z,6.35
2022-11-13T01:24:33.068Z,6.26
2022-11-13T01:27:41.090Z,6.25
2022-11-13T01:30:47.565Z,6.21
2022-11-13T01:33:54.385Z,6.25
2022-11-13T01:37:01.122Z,5.72
2022-11-13T01:40:08.607Z,6.27
2022-11-13T01:43:27.289Z,6.26
2022-11-13T01:46:34.859Z,6.30
2022-11-13T01:49:44.714Z,6.27
2022-11-13T01:52:50.996Z,6.23
2022-11-13T01:55:57.561Z,6.19
2022-11-13T01:59:09.833Z,6.24
2022-11-13T02:02:16.928Z,6.24
2022-11-13T02:05:23.386Z,6.20
2022-11-13T02:08:31.509Z,6.24
2022-11-13T02:11:39.823Z,6.27
2022-11-13T02:14:52.593Z,6.28
2022-11-13T02:18:01.981Z,6.25
2022-11-13T02:21:21.631Z,6.17
2022-11-13T02:24:35.049Z,6.26
2022-11-13T02:27:46.248Z,6.28
2022-11-13T02:30:52.682Z,6.30
2022-11-13T02:33:59.060Z,6.27
2022-11-13T02:37:05.332Z,6.23
2022-11-13T02:40:14.307Z,6.04
2022-11-13T02:43:20.654Z,6.16
2022-11-13T02:46:26.995Z,6.20
2022-11-13T02:49:33.776Z,6.17
2022-11-13T02:52:40.554Z,6.12
2022-11-13T02:55:48.292Z,5.97
2022-11-13T02:58:55.219Z,5.98
2022-11-13T03:02:02.001Z,5.96
2022-11-13T03:05:13.548Z,5.82
2022-11-13T03:08:20.755Z,5.75
2022-11-13T03:11:28.864Z,5.67
2022-11-13T03:14:35.232Z,5.60
2022-11-13T03:17:41.566Z,5.53
2022-11-13T03:20:53.766Z,5.46
2022-11-13T03:24:00.412Z,5.39
2022-11-13T03:27:08.171Z,5.35
2022-11-13T03:30:14.798Z,5.28
2022-11-13T03:33:21.169Z,5.13
2022-11-13T03:36:27.582Z,5.13
2022-11-13T03:39:33.889Z,5.21
2022-11-13T03:42:41.682Z,5.05
2022-11-13T03:45:48.671Z,4.98
2022-11-13T03:48:55.274Z,4.96
2022-11-13T03:52:01.811Z,4.89
2022-11-13T03:55:08.984Z,4.85
2022-11-13T03:58:17.123Z,4.52
2022-11-13T04:01:24.058Z,4.96
2022-11-13T04:04:30.688Z,4.71
2022-11-13T04:07:37.148Z,4.61
2022-11-13T04:10:44.113Z,4.59
2022-11-13T04:13:51.891Z,4.60
2022-11-13T04:16:58.679Z,4.55
2022-11-13T04:20:06.421Z,4.46
2022-11-13T04:23:14.229Z,4.35
2022-11-13T04:26:21.012Z,4.22
2022-11-13T04:29:28.787Z,4.16
2022-11-13T04:32:35.289Z,4.08
2022-11-13T04:35:45.558Z,3.97
2022-11-13T04:38:52.416Z,4.03
2022-11-13T04:42:16.531Z,3.90
2022-11-13T04:45:27.389Z,3.94
2022-11-13T04:48:33.859Z,3.96
2022-11-13T04:51:40.375Z,3.92
2022-11-13T04:54:46.809Z,3.79
2022-11-13T04:57:55.478Z,3.60
2022-11-13T05:01:04.024Z,3.63
2022-11-13T05:04:11.943Z,3.68
2022-11-13T05:07:18.660Z,3.41
2022-11-13T05:10:25.083Z,3.41
2022-11-13T05:13:32.747Z,3.36
2022-11-13T05:16:41.121Z,3.20
2022-11-13T05:19:47.486Z,3.23
2022-11-13T05:22:53.973Z,3.19
2022-11-13T05:26:05.323Z,3.12
2022-11-13T05:29:12.083Z,2.91
2022-11-13T05:32:19.851Z,3.13
2022-11-13T05:35:26.307Z,3.24
2022-11-13T05:38:33.385Z,3.21
2022-11-13T05:41:39.906Z,3.22
2022-11-13T05:44:46.450Z,3.19
2022-11-13T05:47:54.541Z,3.05
2022-11-13T05:51:05.045Z,2.03
2022-11-13T05:54:11.930Z,2.89
2022-11-13T05:57:18.736Z,2.26
2022-11-13T06:00:25.156Z,2.77
2022-11-13T06:03:33.038Z,2.64
2022-11-13T06:06:39.677Z,2.58
2022-11-13T06:09:46.227Z,2.47
2022-11-13T06:12:52.735Z,2.37
2022-11-13T06:16:02.441Z,2.34
2022-11-13T06:19:11.687Z,2.38
2022-11-13T06:22:18.186Z,2.29
2022-11-13T06:25:24.793Z,2.37
2022-11-13T06:28:31.899Z,2.36
2022-11-13T06:31:38.903Z,2.31
2022-11-13T06:34:46.691Z,2.25
2022-11-13T06:37:55.056Z,2.22
2022-11-13T06:41:02.429Z,2.13
2022-11-13T06:44:09.009Z,2.12
2022-11-13T06:47:16.167Z,2.12
2022-11-13T06:50:24.134Z,2.23
2022-11-13T06:53:30.873Z,2.21
2022-11-13T06:56:37.576Z,2.35
2022-11-13T06:59:44.575Z,2.46
2022-11-13T07:02:51.287Z,2.54
2022-11-13T07:05:38.843Z,2.54
2022-11-13T07:08:25.164Z,2.54
2022-11-13T07:11:13.371Z,2.57
2022-11-13T07:13:59.543Z,2.55
2022-11-13T07:17:07.903Z,2.57
2022-11-13T07:19:52.277Z,2.76
2022-11-13T07:22:40.048Z,2.83
2022-11-13T07:25:27.238Z,2.94
2022-11-13T07:28:13.250Z,2.97
2022-11-13T07:31:00.083Z,2.98
2022-11-13T07:33:49.319Z,3.15
2022-11-13T07:36:35.642Z,3.30
2022-11-13T07:39:23.040Z,3.38
2022-11-13T07:42:09.690Z,3.53
2022-11-13T07:44:56.368Z,3.50
2022-11-13T07:47:42.762Z,3.58
2022-11-13T07:50:30.182Z,3.54
2022-11-13T07:53:17.358Z,3.85
2022-11-13T07:56:05.643Z,3.96
2022-11-13T07:58:51.981Z,4.13
2022-11-13T08:01:38.438Z,4.22
2022-11-13T08:04:24.572Z,4.25
2022-11-13T08:07:12.253Z,4.18
2022-11-13T08:09:58.485Z,4.08
2022-11-13T08:12:46.417Z,4.28
2022-11-13T08:15:33.890Z,4.35
2022-11-13T08:18:20.324Z,4.39
2022-11-13T08:21:11.917Z,4.35
2022-11-13T08:24:00.888Z,4.62
2022-11-13T08:26:47.245Z,4.63
2022-11-13T08:29:37.160Z,4.60
2022-11-13T08:32:23.676Z,4.70
2022-11-13T08:35:10.598Z,4.85
2022-11-13T08:38:02.987Z,4.72
2022-11-13T08:40:49.313Z,4.80
2022-11-13T08:43:35.901Z,4.99
2022-11-13T08:46:23.613Z,5.01
2022-11-13T08:49:09.992Z,4.94
2022-11-13T08:51:56.442Z,4.87
2022-11-13T08:54:43.143Z,5.10
2022-11-13T08:57:29.338Z,5.29
2022-11-13T09:00:16.613Z,5.33
2022-11-13T09:03:04.667Z,5.28
2022-11-13T09:05:50.827Z,5.60
2022-11-13T09:08:37.278Z,5.83
2022-11-13T09:11:23.571Z,5.77
2022-11-13T09:14:09.851Z,5.89
2022-11-13T09:16:56.293Z,6.07
2022-11-13T09:19:44.278Z,6.35
2022-11-13T09:22:30.559Z,6.28
2022-11-13T09:25:17.204Z,6.51
2022-11-13T09:28:04.818Z,6.28
2022-11-13T09:30:50.913Z,6.42
2022-11-13T09:33:37.667Z,6.55
2022-11-13T09:36:25.396Z,6.62
2022-11-13T09:39:11.718Z,6.53
2022-11-13T09:42:03.627Z,6.43
2022-11-13T09:44:53.826Z,6.68
2022-11-13T09:47:45.138Z,6.78
2022-11-13T09:50:33.319Z,6.79
2022-11-13T09:53:22.105Z,6.85
2022-11-13T09:56:26.417Z,7.13
2022-11-13T09:59:22.339Z,7.20
2022-11-13T10:02:18.995Z,7.28
2022-11-13T10:05:12.381Z,7.52
2022-11-13T10:08:08.140Z,7.49
2022-11-13T10:11:03.700Z,7.21
2022-11-13T10:13:53.154Z,7.06
2022-11-13T10:16:44.884Z,7.12
2022-11-13T10:19:39.013Z,7.34
2022-11-13T10:22:33.428Z,7.19
2022-11-13T10:25:22.980Z,7.09
2022-11-13T10:31:24.656Z,7.28
2022-11-13T10:34:12.039Z,7.21
2022-11-13T10:37:18.116Z,7.42
2022-11-13T10:40:05.303Z,7.43
2022-11-13T10:42:51.858Z,7.23
2022-11-13T10:45:39.992Z,7.39
2022-11-13T10:48:29.446Z,7.35
2022-11-13T10:51:25.540Z,7.41
2022-11-13T10:54:24.391Z,7.58
2022-11-13T10:57:25.014Z,7.82
2022-11-13T11:00:31.783Z,7.90
2022-11-13T11:03:21.196Z,7.77
2022-11-13T11:06:08.196Z,8.08
2022-11-13T11:08:54.435Z,8.21
2022-11-13T11:11:58.535Z,8.14
2022-11-13T11:15:07.424Z,8.22
2022-11-13T11:17:58.679Z,8.43
2022-11-13T11:20:50.739Z,8.46
2022-11-13T11:23:44.019Z,8.22
2022-11-13T11:26:34.857Z,8.30
2022-11-13T11:29:29.358Z,8.26
2022-11-13T11:32:23.895Z,8.49
2022-11-13T11:35:16.797Z,8.26
2022-11-13T11:38:12.699Z,8.38
2022-11-13T11:41:07.654Z,8.32
2022-11-13T11:44:05.179Z,8.42
2022-11-13T11:46:51.390Z,8.46
2022-11-13T11:49:37.679Z,8.45
2022-11-13T11:52:38.767Z,8.46
2022-11-13T11:55:43.999Z,8.71
2022-11-13T11:58:44.311Z,8.65
2022-11-13T12:01:47.298Z,8.77
2022-11-13T12:04:47.825Z,8.74
2022-11-13T12:07:42.746Z,8.84
2022-11-13T12:10:39.502Z,8.51
2022-11-13T12:13:31.357Z,8.40
2022-11-13T12:16:25.569Z,8.53
2022-11-13T12:19:23.134Z,8.59
2022-11-13T12:22:18.741Z,8.70
2022-11-13T12:25:15.743Z,8.54
2022-11-13T12:28:15.553Z,8.68
2022-11-13T12:31:10.391Z,8.71
2022-11-13T12:34:05.514Z,8.60
2022-11-13T12:36:53.763Z,8.76
2022-11-13T12:39:48.584Z,8.80
2022-11-13T12:42:40.951Z,8.57
2022-11-13T12:45:42.638Z,8.37
2022-11-13T12:48:34.636Z,8.49
2022-11-13T12:51:21.141Z,8.39
2022-11-13T12:54:10.620Z,8.49
2022-11-13T12:57:09.040Z,8.71
2022-11-13T12:59:56.575Z,8.83
2022-11-13T13:02:56.822Z,9.07
2022-11-13T13:06:05.677Z,9.08
2022-11-13T13:09:14.608Z,9.39
2022-11-13T13:12:07.818Z,9.26
2022-11-13T13:15:13.013Z,9.47
2022-11-13T13:18:10.860Z,9.54
2022-11-13T13:21:06.244Z,9.74
2022-11-13T13:23:54.127Z,9.76
2022-11-13T13:26:46.319Z,9.92
2022-11-13T13:29:34.447Z,9.97
2022-11-13T13:32:24.462Z,10.04
2022-11-13T13:35:16.322Z,10.06
2022-11-13T13:38:11.235Z,10.08
2022-11-13T13:41:15.420Z,10.13
2022-11-13T13:44:19.695Z,10.20
2022-11-13T13:47:13.441Z,10.19
2022-11-13T13:49:59.955Z,10.24
2022-11-13T13:52:54.257Z,10.30
2022-11-13T13:55:48.068Z,10.27
2022-11-13T13:58:37.701Z,10.32
2022-11-13T14:01:29.535Z,10.25
2022-11-13T14:04:19.671Z,10.53
2022-11-13T14:07:19.506Z,10.58
2022-11-13T14:10:09.664Z,10.55
2022-11-13T14:12:57.036Z,10.62
2022-11-13T14:15:43.556Z,10.65
2022-11-13T14:18:30.175Z,10.58
2022-11-13T14:21:20.657Z,10.55
2022-11-13T14:24:15.066Z,9.98
2022-11-13T14:27:07.279Z,10.55
2022-11-13T14:29:56.569Z,10.49
2022-11-13T14:32:46.969Z,10.46
2022-11-13T14:35:34.117Z,10.44
2022-11-13T14:38:22.918Z,10.40
2022-11-13T14:41:20.945Z,10.29
2022-11-13T14:44:11.526Z,10.18
2022-11-13T14:47:02.902Z,10.08
2022-11-13T14:49:49.423Z,10.02
2022-11-13T14:52:36.734Z,9.95
2022-11-13T14:55:25.565Z,9.85
2022-11-13T14:58:14.672Z,9.79
2022-11-13T15:01:14.909Z,9.66
2022-11-13T15:04:01.002Z,9.63
2022-11-13T15:06:48.548Z,9.53
2022-11-13T15:09:35.557Z,9.41
2022-11-13T15:12:21.958Z,9.27
2022-11-13T15:15:14.301Z,9.21
2022-11-13T15:18:03.141Z,9.10
2022-11-13T15:20:49.570Z,9.09
2022-11-13T15:23:35.982Z,8.98
2022-11-13T15:26:22.491Z,8.94
2022-11-13T15:29:08.740Z,8.89
2022-11-13T15:31:55.501Z,8.80
2022-11-13T15:34:43.248Z,8.77
2022-11-13T15:37:29.457Z,8.64
2022-11-13T15:40:16.808Z,8.53
2022-11-13T15:43:04.206Z,8.42
2022-11-13T15:45:50.523Z,8.25
2022-11-13T15:48:36.580Z,8.14
2022-11-13T15:51:31.949Z,8.02
2022-11-13T15:54:25.524Z,7.85
2022-11-13T15:57:18.033Z,7.71
2022-11-13T16:00:04.691Z,7.58
2022-11-13T16:02:51.945Z,7.42
2022-11-13T16:05:38.095Z,7.40
2022-11-13T16:08:25.943Z,7.32
2022-11-13T16:11:15.597Z,7.23
2022-11-13T16:14:02.366Z,7.12
2022-11-13T16:16:50.511Z,7.09
2022-11-13T16:19:38.599Z,6.80
2022-11-13T16:22:26.919Z,6.94
2022-11-13T16:25:16.968Z,6.68
2022-11-13T16:28:03.235Z,6.84
2022-11-13T16:30:50.591Z,6.79
2022-11-13T16:33:36.765Z,6.64
2022-11-13T16:36:23.634Z,6.60
2022-11-13T16:39:15.665Z,6.47
2022-11-13T16:42:03.449Z,6.47
2022-11-13T16:44:49.588Z,6.38
2022-11-13T16:47:36.446Z,6.34
2022-11-13T16:50:24.558Z,6.30
2022-11-13T16:53:10.942Z,6.34
2022-11-13T16:55:57.501Z,6.28
2022-11-13T16:58:45.399Z,6.28
2022-11-13T17:01:31.941Z,6.21
2022-11-13T17:04:18.106Z,6.07
2022-11-13T17:07:04.609Z,6.07
2022-11-13T17:10:10.101Z,5.99
2022-11-13T17:12:57.052Z,5.94
2022-11-13T17:15:44.901Z,6.06
2022-11-13T17:18:31.374Z,6.13
2022-11-13T17:21:17.961Z,6.03
2022-11-13T17:24:04.717Z,6.07
2022-11-13T17:26:51.081Z,6.01
2022-11-13T17:29:38.525Z,5.95
2022-11-13T17:32:26.596Z,5.89
2022-11-13T17:35:13.220Z,5.87
2022-11-13T17:37:59.366Z,5.84
2022-11-13T17:40:45.762Z,5.80
2022-11-13T17:43:32.132Z,5.72
2022-11-13T17:46:19.019Z,5.64
2022-11-13T17:49:06.778Z,5.62
2022-11-13T17:51:52.836Z,5.65
2022-11-13T17:54:39.350Z,5.57
2022-11-13T17:57:27.068Z,5.65
2022-11-13T18:00:14.432Z,5.61
2022-11-13T18:03:00.609Z,5.63
2022-11-13T18:05:48.125Z,5.33
2022-11-13T18:08:35.163Z,5.60
2022-11-13T18:11:24.574Z,5.53
2022-11-13T18:14:10.734Z,5.50
2022-11-13T18:16:57.164Z,5.48
2022-11-13T18:19:43.441Z,5.40
2022-11-13T18:22:31.532Z,5.39
2022-11-13T18:25:18.127Z,5.35
2022-11-13T18:28:04.218Z,5.26
2022-11-13T18:30:56.114Z,5.23
2022-11-13T18:33:43.142Z,5.27
2022-11-13T18:36:31.586Z,5.29
2022-11-13T18:39:19.052Z,5.32
2022-11-13T18:42:05.343Z,5.38
2022-11-13T18:44:51.656Z,5.44
2022-11-13T18:47:37.921Z,5.41
2022-11-13T18:50:24.311Z,5.37
2022-11-13T18:53:10.575Z,5.33
2022-11-13T18:56:01.660Z,5.35
2022-11-13T18:58:48.963Z,5.52
2022-11-13T19:01:36.321Z,5.88
2022-11-13T19:04:23.989Z,6.17
2022-11-13T19:07:12.115Z,6.35
2022-11-13T19:09:58.555Z,6.62
2022-11-13T19:12:46.406Z,6.71
2022-11-13T19:15:34.023Z,6.59
2022-11-13T19:18:20.449Z,6.49
2022-11-13T19:21:08.078Z,6.30
2022-11-13T19:23:54.699Z,6.33
2022-11-13T19:26:41.566Z,6.40
2022-11-13T19:29:29.278Z,6.28
2022-11-13T19:32:15.810Z,6.28
2022-11-13T19:35:02.118Z,6.30
2022-11-13T19:37:48.601Z,6.31
2022-11-13T19:40:34.871Z,6.55
2022-11-13T19:43:21.347Z,6.75
2022-11-13T19:46:10.804Z,6.83
2022-11-13T19:48:57.032Z,6.79
2022-11-13T19:51:43.247Z,6.80
2022-11-13T19:54:29.490Z,6.79
2022-11-13T19:57:15.593Z,6.68
2022-11-13T20:00:01.667Z,6.54
2022-11-13T20:02:49.360Z,6.67
2022-11-13T20:05:35.848Z,6.71
2022-11-13T20:08:26.836Z,6.75
2022-11-13T20:11:15.052Z,6.80
2022-11-13T20:14:01.375Z,6.88
2022-11-13T20:16:47.522Z,6.96
2022-11-13T20:19:35.065Z,6.96
2022-11-13T20:22:21.625Z,7.06
2022-11-13T20:25:08.581Z,6.94
2022-11-13T20:27:55.117Z,6.81
2022-11-13T20:30:41.466Z,6.79
2022-11-13T20:33:27.690Z,6.83
2022-11-13T20:36:17.053Z,7.29
2022-11-13T20:39:12.277Z,7.54
2022-11-13T20:41:58.510Z,7.77
2022-11-13T20:44:44.592Z,7.96
2022-11-13T20:47:30.654Z,8.11
2022-11-13T20:50:17.013Z,8.06
2022-11-13T20:53:04.896Z,7.95
2022-11-13T20:55:51.285Z,7.77
2022-11-13T20:58:38.447Z,7.59
2022-11-13T21:01:26.767Z,7.35
2022-11-13T21:04:31.762Z,7.11
2022-11-13T21:07:38.274Z,6.91
2022-11-13T21:10:46.363Z,6.68
2022-11-13T21:13:55.287Z,6.53
2022-11-13T21:17:01.722Z,6.40
2022-11-13T21:20:09.551Z,6.26
2022-11-13T21:23:16.315Z,6.18
2022-11-13T21:26:24.639Z,6.04
2022-11-13T21:29:31.354Z,6.01
2022-11-13T21:32:39.051Z,5.89
2022-11-13T21:35:45.402Z,5.75
2022-11-13T21:38:53.242Z,5.98
2022-11-13T21:42:01.038Z,5.95
2022-11-13T21:45:08.405Z,6.03
2022-11-13T21:48:16.401Z,6.05
2022-11-13T21:51:23.166Z,5.95
2022-11-13T21:54:30.046Z,5.85
2022-11-13T21:57:37.754Z,5.89
2022-11-13T22:00:44.744Z,5.90
2022-11-13T22:03:51.799Z,5.88
2022-11-13T22:06:58.543Z,5.86
2022-11-13T22:10:08.505Z,5.88
2022-11-13T22:13:16.385Z,5.79
2022-11-13T22:16:23.744Z,5.67
2022-11-13T22:19:35.636Z,5.54
2022-11-13T22:22:42.876Z,5.30
2022-11-13T22:25:49.216Z,5.34
2022-11-13T22:28:57.753Z,5.24
2022-11-13T22:32:04.253Z,5.12
2022-11-13T22:35:10.687Z,5.17
2022-11-13T22:38:16.988Z,5.19
2022-11-13T22:41:25.187Z,5.04
2022-11-13T22:44:51.605Z,4.81
2022-11-13T22:47:59.126Z,4.86
2022-11-13T22:51:07.608Z,4.77
2022-11-13T22:54:14.283Z,4.77
2022-11-13T22:57:20.839Z,4.54
2022-11-13T23:00:28.507Z,4.38
2022-11-13T23:03:38.013Z,4.35
2022-11-13T23:06:44.501Z,4.27
2022-11-13T23:09:50.865Z,4.43
2022-11-13T23:12:57.159Z,4.34
2022-11-13T23:16:05.389Z,4.30
2022-11-13T23:19:12.411Z,4.39
2022-11-13T23:22:19.283Z,4.43
2022-11-13T23:25:26.022Z,4.58
2022-11-13T23:28:32.587Z,4.59
2022-11-13T23:31:40.433Z,4.61
2022-11-13T23:34:59.024Z,4.72
2022-11-13T23:38:06.248Z,4.80
2022-11-13T23:41:13.177Z,4.92
2022-11-13T23:44:19.684Z,5.01
2022-11-13T23:47:27.636Z,4.90
2022-11-13T23:50:34.347Z,5.14
2022-11-13T23:53:41.033Z,5.30
2022-11-13T23:56:47.387Z,5.30
2022-11-13T23:59:53.695Z,5.32
